Time;durP1;ratioP1;P1;durP2;ratioP2;P2;SDS_P1;SDS_P2;PMS_P1;PMS_P2;Temp;Humidity;BMP_temperature;BMP_pressure;BME280_temperature;BME280_humidity;BME280_pressure;Samples;Min_cycle;Max_cycle;Signal;HPM_P1;HPM_P2
2021/08/26 00:00:58;;;;;;;3.90;1.30;;;15.90;99.90;;;;;;4391208;32;20189;-62
2021/08/26 00:06:16;;;;;;;6.60;1.77;;;15.90;99.90;;;;;;4391202;32;20480;-60
2021/08/26 00:08:44;;;;;;;4.80;2.10;;;15.90;99.90;;;;;;4376073;32;20569;-62
2021/08/26 00:11:12;;;;;;;4.73;1.93;;;15.80;99.90;;;;;;4376361;32;20175;-62
2021/08/26 00:13:39;;;;;;;7.83;1.70;;;15.80;99.90;;;;;;4392246;32;20152;-62
2021/08/26 00:16:06;;;;;;;6.97;2.77;;;15.90;99.90;;;;;;4391084;32;20445;-62
2021/08/26 00:18:33;;;;;;;4.03;1.70;;;15.90;99.90;;;;;;4390737;32;20190;-62
2021/08/26 00:21:03;;;;;;;9.17;2.77;;;15.90;99.90;;;;;;4392278;32;20217;-62
2021/08/26 00:23:31;;;;;;;7.80;2.60;;;15.90;99.90;;;;;;4390919;32;20194;-62
2021/08/26 00:25:58;;;;;;;9.63;2.07;;;15.80;99.90;;;;;;4391764;32;20172;-62
2021/08/26 00:28:25;;;;;;;7.17;1.80;;;15.80;99.90;;;;;;4405747;32;20229;-63
2021/08/26 00:30:51;;;;;;;9.00;2.53;;;15.80;99.90;;;;;;4398098;32;20214;-63
2021/08/26 00:33:18;;;;;;;5.37;2.30;;;15.90;99.90;;;;;;4391894;32;20172;-62
2021/08/26 00:35:45;;;;;;;7.03;2.40;;;15.90;99.90;;;;;;4391795;32;20182;-63
2021/08/26 00:38:12;;;;;;;4.50;2.43;;;15.90;99.90;;;;;;4392528;32;20163;-63
2021/08/26 00:40:40;;;;;;;8.80;2.50;;;15.80;99.90;;;;;;4390334;32;20202;-61
2021/08/26 00:43:07;;;;;;;6.67;2.27;;;15.80;99.90;;;;;;4390530;32;20149;-62
2021/08/26 00:45:34;;;;;;;7.03;2.57;;;15.80;99.90;;;;;;4383989;32;20184;-62
2021/08/26 00:48:03;;;;;;;5.70;2.10;;;15.80;99.90;;;;;;4391554;32;20246;-62
2021/08/26 00:50:30;;;;;;;9.50;2.53;;;15.80;99.90;;;;;;4390369;32;20215;-62
2021/08/26 00:52:58;;;;;;;9.63;2.33;;;15.90;99.90;;;;;;4390453;32;20164;-61
2021/08/26 00:55:25;;;;;;;9.50;2.50;;;15.90;99.90;;;;;;4390069;32;20392;-63
2021/08/26 00:57:54;;;;;;;7.73;2.27;;;15.90;99.90;;;;;;4389551;32;20198;-62
2021/08/26 01:00:20;;;;;;;7.43;2.47;;;15.90;99.90;;;;;;4390326;32;20148;-62
2021/08/26 01:02:57;;;;;;;7.57;2.93;;;15.90;99.90;;;;;;4390360;32;20180;-62
2021/08/26 01:05:28;;;;;;;5.37;2.57;;;16.00;99.90;;;;;;4389667;32;20213;-63
2021/08/26 01:08:01;;;;;;;7.37;2.30;;;16.10;99.90;;;;;;4388951;32;20669;-64
2021/08/26 01:10:31;;;;;;;7.77;2.27;;;16.00;99.90;;;;;;4390353;32;20625;-62
2021/08/26 01:13:02;;;;;;;7.93;2.90;;;16.00;99.90;;;;;;4390871;32;20631;-63
2021/08/26 01:15:29;;;;;;;12.20;2.70;;;16.00;99.90;;;;;;4390013;32;20623;-62
2021/08/26 01:17:56;;;;;;;11.93;2.73;;;16.00;99.90;;;;;;4391578;32;20186;-61
2021/08/26 01:20:25;;;;;;;10.27;2.33;;;16.00;99.90;;;;;;4391938;32;20176;-63
2021/08/26 01:22:52;;;;;;;7.20;2.63;;;15.90;99.90;;;;;;4392014;32;20152;-64
2021/08/26 01:25:23;;;;;;;7.30;2.87;;;16.00;99.90;;;;;;4391283;32;20275;-63
2021/08/26 01:27:56;;;;;;;13.73;3.27;;;15.90;99.90;;;;;;4390333;32;20170;-62
2021/08/26 01:30:26;;;;;;;6.43;3.30;;;16.00;99.90;;;;;;4391687;32;20178;-62
2021/08/26 01:32:56;;;;;;;9.23;3.10;;;16.00;99.90;;;;;;4390412;32;20568;-63
2021/08/26 01:35:24;;;;;;;12.10;3.10;;;16.00;99.90;;;;;;4389684;32;20175;-63
2021/08/26 01:37:52;;;;;;;7.87;3.07;;;16.00;99.90;;;;;;4391531;32;20175;-63
2021/08/26 01:40:38;;;;;;;9.10;2.83;;;16.00;99.90;;;;;;4390160;32;20148;-63
2021/08/26 01:43:09;;;;;;;9.47;3.77;;;16.00;99.90;;;;;;4391618;32;20203;-61
2021/08/26 01:45:37;;;;;;;8.57;2.87;;;16.00;99.90;;;;;;4390100;32;20209;-63
2021/08/26 01:48:04;;;;;;;13.03;3.53;;;16.00;99.90;;;;;;4389808;32;20183;-63
2021/08/26 01:50:31;;;;;;;9.70;3.50;;;16.10;99.90;;;;;;4391308;32;20204;-64
2021/08/26 01:52:58;;;;;;;11.20;3.83;;;16.10;99.90;;;;;;4389911;32;20171;-63
2021/08/26 01:55:25;;;;;;;15.67;5.27;;;16.00;99.90;;;;;;4390214;32;20195;-63
2021/08/26 01:57:51;;;;;;;15.33;3.90;;;16.00;99.90;;;;;;4390385;32;20152;-62
2021/08/26 02:00:20;;;;;;;10.00;3.40;;;16.00;99.90;;;;;;4390045;32;20223;-63
2021/08/26 02:02:46;;;;;;;11.07;3.60;;;16.00;99.90;;;;;;4389987;32;20148;-62
2021/08/26 02:05:13;;;;;;;12.87;3.63;;;16.00;99.90;;;;;;4289053;32;3309252;-63
2021/08/26 02:07:45;;;;;;;15.20;4.13;;;16.00;99.90;;;;;;4389617;32;20537;-62
2021/08/26 02:10:12;;;;;;;8.93;3.37;;;15.90;99.90;;;;;;4389614;32;20230;-63
2021/08/26 02:12:39;;;;;;;13.83;4.20;;;15.90;99.90;;;;;;4390183;32;20157;-63
2021/08/26 02:15:07;;;;;;;13.07;4.60;;;15.80;99.90;;;;;;4389654;32;20184;-62
2021/08/26 02:17:36;;;;;;;14.63;4.13;;;15.90;99.90;;;;;;4392976;32;20568;-63
2021/08/26 02:20:03;;;;;;;15.07;3.67;;;15.90;99.90;;;;;;4392552;32;20178;-62
2021/08/26 02:22:30;;;;;;;13.73;3.93;;;15.90;99.90;;;;;;4393079;32;20504;-63
2021/08/26 02:24:57;;;;;;;11.03;3.77;;;15.90;99.90;;;;;;4392970;32;20168;-63
2021/08/26 02:27:24;;;;;;;10.27;3.90;;;15.90;99.90;;;;;;4400981;32;20167;-62
2021/08/26 02:29:51;;;;;;;10.33;3.63;;;15.80;99.90;;;;;;4397077;32;20689;-62
2021/08/26 02:32:18;;;;;;;11.63;3.73;;;15.90;99.90;;;;;;4393505;32;20542;-61
2021/08/26 02:34:46;;;;;;;20.50;3.60;;;15.90;99.90;;;;;;4392156;32;20184;-62
2021/08/26 02:37:13;;;;;;;11.07;3.73;;;15.80;99.90;;;;;;4392435;32;20140;-63
2021/08/26 02:39:39;;;;;;;10.33;3.20;;;15.80;99.90;;;;;;4393505;32;20689;-62
2021/08/26 02:42:06;;;;;;;11.10;3.43;;;15.80;99.90;;;;;;4392369;32;20663;-62
2021/08/26 02:44:33;;;;;;;17.73;5.27;;;15.80;99.90;;;;;;4391822;32;20182;-64
2021/08/26 02:47:00;;;;;;;9.97;4.03;;;15.70;99.90;;;;;;4392250;32;20211;-63
2021/08/26 02:49:27;;;;;;;16.43;4.17;;;15.70;99.90;;;;;;4392006;32;20178;-64
2021/08/26 02:51:55;;;;;;;13.37;4.40;;;15.80;99.90;;;;;;4392095;32;20243;-63
2021/08/26 02:54:22;;;;;;;12.60;3.70;;;15.80;99.90;;;;;;4392026;32;20144;-62
2021/08/26 02:56:48;;;;;;;12.03;3.73;;;15.80;99.90;;;;;;4392222;32;20163;-61
2021/08/26 02:59:15;;;;;;;8.90;3.13;;;15.80;99.90;;;;;;4391422;32;20152;-61
2021/08/26 03:01:42;;;;;;;9.63;3.63;;;15.80;99.90;;;;;;4392731;32;20207;-61
2021/08/26 03:04:09;;;;;;;11.90;3.57;;;15.80;99.90;;;;;;4391611;32;20156;-61
2021/08/26 03:06:36;;;;;;;12.03;3.83;;;15.80;99.90;;;;;;4392654;32;20655;-61
2021/08/26 03:09:04;;;;;;;11.13;3.33;;;15.80;99.90;;;;;;4392047;32;20430;-62
2021/08/26 03:11:31;;;;;;;12.87;3.63;;;15.80;99.90;;;;;;4392532;32;20140;-61
2021/08/26 03:13:58;;;;;;;12.77;4.33;;;15.80;99.90;;;;;;4392005;32;20572;-60
2021/08/26 03:16:24;;;;;;;10.97;3.27;;;15.80;99.90;;;;;;4392796;32;20155;-62
2021/08/26 03:18:52;;;;;;;13.27;4.67;;;15.80;99.90;;;;;;4391493;32;20163;-63
2021/08/26 03:21:19;;;;;;;14.00;4.40;;;15.80;99.90;;;;;;4391844;32;20196;-63
2021/08/26 03:23:46;;;;;;;14.03;4.20;;;15.80;99.90;;;;;;4392322;32;20304;-63
2021/08/26 03:26:14;;;;;;;15.60;3.60;;;15.80;99.90;;;;;;4392083;32;20219;-61
2021/08/26 03:28:43;;;;;;;12.97;3.93;;;15.80;99.90;;;;;;4397889;32;20600;-62
2021/08/26 03:31:13;;;;;;;20.03;4.77;;;15.80;99.90;;;;;;4391522;32;20170;-63
2021/08/26 03:33:39;;;;;;;12.03;4.33;;;15.60;99.90;;;;;;4391031;32;20160;-63
2021/08/26 03:36:06;;;;;;;15.07;3.93;;;15.60;99.90;;;;;;4391692;32;20164;-63
2021/08/26 03:38:33;;;;;;;16.63;3.90;;;15.60;99.90;;;;;;4391111;32;20163;-62
2021/08/26 03:41:02;;;;;;;19.37;3.70;;;15.60;99.90;;;;;;4392611;32;20595;-61
2021/08/26 03:43:30;;;;;;;16.97;4.37;;;15.60;99.90;;;;;;4391140;32;20152;-62
2021/08/26 03:45:57;;;;;;;15.47;4.23;;;15.60;99.90;;;;;;4393209;32;20155;-61
2021/08/26 03:48:24;;;;;;;13.40;3.90;;;15.60;99.90;;;;;;4390670;32;20534;-61
2021/08/26 03:50:51;;;;;;;13.87;3.73;;;15.70;99.90;;;;;;4391308;32;20214;-61
2021/08/26 03:53:17;;;;;;;14.17;3.50;;;15.70;99.90;;;;;;4390288;32;20599;-62
2021/08/26 03:55:44;;;;;;;9.80;3.60;;;15.60;99.90;;;;;;4384532;32;20267;-62
2021/08/26 03:58:13;;;;;;;18.17;3.93;;;15.70;99.90;;;;;;4385182;32;20158;-61
2021/08/26 04:00:41;;;;;;;9.77;3.40;;;15.70;99.90;;;;;;4391230;32;20140;-61
2021/08/26 04:03:08;;;;;;;13.47;3.53;;;15.70;99.90;;;;;;4391943;32;20234;-60
2021/08/26 04:05:35;;;;;;;14.27;4.00;;;15.70;99.90;;;;;;4390894;32;20170;-63
2021/08/26 04:08:02;;;;;;;16.87;4.10;;;15.70;99.90;;;;;;4391970;32;20193;-61
2021/08/26 04:10:28;;;;;;;14.37;3.53;;;15.60;99.90;;;;;;4392793;32;20171;-62
2021/08/26 04:12:55;;;;;;;8.80;3.23;;;15.60;99.90;;;;;;4390872;32;20247;-61
2021/08/26 04:15:22;;;;;;;14.07;3.73;;;15.60;99.90;;;;;;4391052;32;20148;-62
2021/08/26 04:17:50;;;;;;;14.73;3.53;;;15.60;99.90;;;;;;4391290;32;20628;-63
2021/08/26 04:20:17;;;;;;;14.93;3.83;;;15.70;99.90;;;;;;4390995;32;20202;-63
2021/08/26 04:22:44;;;;;;;12.03;4.00;;;15.60;99.90;;;;;;4391401;32;20223;-63
2021/08/26 04:25:11;;;;;;;14.70;3.63;;;15.60;99.90;;;;;;4391853;32;20224;-63
2021/08/26 04:27:41;;;;;;;20.57;3.50;;;15.60;99.90;;;;;;4398138;32;20152;-62
2021/08/26 04:30:10;;;;;;;15.77;3.50;;;15.60;99.90;;;;;;4390734;32;20140;-61
2021/08/26 04:32:36;;;;;;;14.37;2.90;;;15.60;99.90;;;;;;4389646;32;20612;-62
2021/08/26 04:35:05;;;;;;;15.63;3.23;;;15.60;99.90;;;;;;4390677;32;20231;-62
2021/08/26 04:37:32;;;;;;;10.67;2.50;;;15.60;99.90;;;;;;4390049;32;20159;-62
2021/08/26 04:39:59;;;;;;;10.37;3.20;;;15.60;99.90;;;;;;4390697;32;20159;-63
2021/08/26 04:42:26;;;;;;;15.03;3.20;;;15.60;99.90;;;;;;4390848;32;20163;-61
2021/08/26 04:44:53;;;;;;;11.47;2.93;;;15.60;99.90;;;;;;4390019;32;20530;-62
2021/08/26 04:47:25;;;;;;;10.77;2.73;;;15.70;99.90;;;;;;4390298;32;20201;-62
2021/08/26 04:49:52;;;;;;;14.80;3.17;;;15.60;99.90;;;;;;4391192;32;20156;-62
2021/08/26 04:52:20;;;;;;;12.30;2.83;;;15.70;99.90;;;;;;4390341;32;20601;-62
2021/08/26 04:54:46;;;;;;;9.13;2.70;;;15.70;99.90;;;;;;4390874;32;20166;-63
2021/08/26 04:57:13;;;;;;;12.00;2.93;;;15.70;99.90;;;;;;4390263;32;20224;-62
2021/08/26 04:59:40;;;;;;;8.67;3.17;;;15.70;99.90;;;;;;4390061;32;20178;-63
2021/08/26 05:02:10;;;;;;;12.50;2.87;;;15.70;99.90;;;;;;4390654;32;20201;-62
2021/08/26 05:04:36;;;;;;;13.70;3.10;;;15.70;99.90;;;;;;4390440;32;20480;-62
2021/08/26 05:07:04;;;;;;;11.23;2.90;;;15.80;99.90;;;;;;4389598;32;20182;-62
2021/08/26 05:09:32;;;;;;;8.73;2.57;;;15.80;99.90;;;;;;4392056;32;20170;-63
2021/08/26 05:12:00;;;;;;;14.30;3.00;;;15.80;99.90;;;;;;4390064;32;20172;-63
2021/08/26 05:14:28;;;;;;;13.87;3.00;;;15.80;99.90;;;;;;4390426;32;20506;-63
2021/08/26 05:16:57;;;;;;;5.87;2.27;;;15.80;99.90;;;;;;4391561;32;20505;-62
2021/08/26 05:19:23;;;;;;;19.93;4.20;;;15.80;99.90;;;;;;4384855;32;20624;-62
2021/08/26 05:21:50;;;;;;;8.47;2.60;;;15.70;99.90;;;;;;4389742;32;20210;-62
2021/08/26 05:24:17;;;;;;;11.90;2.80;;;15.80;99.90;;;;;;4396876;32;20219;-62
2021/08/26 05:26:53;;;;;;;13.23;3.03;;;15.80;99.90;;;;;;4398295;32;20152;-61
2021/08/26 05:29:20;;;;;;;14.33;2.90;;;15.80;99.90;;;;;;4384165;32;20227;-62
2021/08/26 05:31:47;;;;;;;8.10;2.57;;;15.90;99.90;;;;;;4391176;32;20565;-61
2021/08/26 05:34:14;;;;;;;11.30;2.80;;;16.00;99.90;;;;;;4383490;32;20227;-61
2021/08/26 05:36:40;;;;;;;11.03;2.67;;;16.10;99.90;;;;;;4392790;32;20160;-62
2021/08/26 05:39:08;;;;;;;9.23;2.47;;;16.20;99.90;;;;;;4391351;32;20455;-61
2021/08/26 05:41:34;;;;;;;7.20;2.77;;;16.20;99.90;;;;;;4385219;32;20180;-62
2021/08/26 05:44:03;;;;;;;7.97;2.70;;;16.20;99.90;;;;;;4384118;32;20226;-62
2021/08/26 05:46:29;;;;;;;5.30;2.47;;;16.30;99.90;;;;;;4384542;32;20501;-61
2021/08/26 05:48:56;;;;;;;5.53;2.10;;;16.30;99.90;;;;;;4382974;32;20183;-61
2021/08/26 05:51:27;;;;;;;9.47;2.30;;;16.30;99.90;;;;;;4389668;32;20140;-62
2021/08/26 05:53:53;;;;;;;11.50;2.53;;;16.30;99.90;;;;;;4389951;32;20193;-63
2021/08/26 05:56:23;;;;;;;9.93;1.73;;;16.50;99.90;;;;;;4392258;32;20151;-61
2021/08/26 05:58:50;;;;;;;9.27;3.10;;;16.60;99.90;;;;;;4382668;32;20156;-62
2021/08/26 06:01:18;;;;;;;14.60;2.60;;;16.70;99.90;;;;;;4387904;32;20144;-62
2021/08/26 06:03:45;;;;;;;7.80;2.13;;;16.80;99.90;;;;;;4391283;32;20609;-62
2021/08/26 06:06:11;;;;;;;8.67;2.57;;;16.90;99.90;;;;;;4391959;32;20517;-61
2021/08/26 06:08:38;;;;;;;7.80;2.30;;;17.10;99.90;;;;;;4392032;32;20187;-61
2021/08/26 06:11:05;;;;;;;8.70;2.20;;;17.30;99.90;;;;;;4388985;32;20224;-62
2021/08/26 06:13:32;;;;;;;7.27;2.47;;;17.40;99.90;;;;;;4384508;32;20183;-61
2021/08/26 06:15:59;;;;;;;13.10;2.87;;;17.30;99.90;;;;;;4381495;32;20545;-61
2021/08/26 06:18:27;;;;;;;10.97;2.30;;;17.30;99.90;;;;;;4384148;32;20163;-62
2021/08/26 06:20:54;;;;;;;10.20;3.17;;;17.30;99.90;;;;;;4390889;32;20168;-61
2021/08/26 06:23:22;;;;;;;9.37;2.77;;;17.10;99.90;;;;;;4391440;32;20178;-62
2021/08/26 06:25:49;;;;;;;9.47;2.20;;;17.20;99.90;;;;;;4389590;32;20592;-62
2021/08/26 06:28:16;;;;;;;10.53;1.83;;;17.10;99.90;;;;;;4388672;32;20160;-62
2021/08/26 06:30:58;;;;;;;9.10;3.27;;;17.20;99.90;;;;;;4392183;32;20631;-62
2021/08/26 06:33:24;;;;;;;7.20;2.20;;;17.40;99.90;;;;;;4388388;32;20156;-61
2021/08/26 06:35:53;;;;;;;8.10;1.93;;;17.50;99.90;;;;;;4380307;32;20496;-61
2021/08/26 06:38:20;;;;;;;5.63;2.13;;;17.60;99.90;;;;;;4387586;32;20577;-60
2021/08/26 06:40:47;;;;;;;8.90;2.40;;;17.70;99.90;;;;;;4386265;32;20160;-61
2021/08/26 06:43:16;;;;;;;12.83;2.80;;;17.80;99.90;;;;;;4391043;32;20223;-62
2021/08/26 06:45:43;;;;;;;11.33;2.87;;;18.00;99.90;;;;;;4387713;32;20167;-60
2021/08/26 06:48:11;;;;;;;7.10;2.00;;;18.00;99.90;;;;;;4388438;32;20144;-59
2021/08/26 06:50:38;;;;;;;9.37;2.83;;;18.00;99.90;;;;;;4391332;32;20186;-61
2021/08/26 06:53:06;;;;;;;10.20;2.47;;;18.10;99.90;;;;;;4390136;32;20224;-61
2021/08/26 06:55:33;;;;;;;6.20;2.13;;;18.00;99.90;;;;;;4390679;32;20255;-61
2021/08/26 06:58:00;;;;;;;6.73;2.20;;;18.20;99.90;;;;;;4381309;32;20218;-61
2021/08/26 07:00:27;;;;;;;7.80;2.90;;;18.40;99.90;;;;;;4388237;32;20170;-61
2021/08/26 07:02:54;;;;;;;10.53;2.43;;;18.40;99.90;;;;;;4383217;32;20167;-60
2021/08/26 07:05:21;;;;;;;6.30;2.13;;;18.50;99.90;;;;;;4388538;32;20194;-62
2021/08/26 07:07:48;;;;;;;5.73;2.03;;;18.40;99.90;;;;;;4384857;32;20144;-61
2021/08/26 07:10:17;;;;;;;7.33;2.60;;;18.40;99.90;;;;;;4392463;32;20207;-61
2021/08/26 07:12:44;;;;;;;11.67;2.10;;;18.30;99.90;;;;;;4382386;32;20183;-61
2021/08/26 07:15:11;;;;;;;11.73;2.37;;;18.10;99.90;;;;;;4387935;32;20148;-61
2021/08/26 07:17:38;;;;;;;7.30;1.90;;;18.00;99.90;;;;;;4382909;32;20591;-63
2021/08/26 07:20:06;;;;;;;5.63;1.77;;;17.60;99.90;;;;;;4389926;32;20174;-62
2021/08/26 07:22:33;;;;;;;7.83;2.10;;;17.40;99.90;;;;;;4391024;32;20589;-60
2021/08/26 07:24:59;;;;;;;5.53;1.70;;;17.60;99.90;;;;;;4386439;32;20147;-63
2021/08/26 07:27:28;;;;;;;9.17;2.50;;;17.60;99.90;;;;;;4377872;32;20145;-62
2021/08/26 07:29:55;;;;;;;8.53;2.17;;;17.60;99.90;;;;;;4389301;32;20156;-61
2021/08/26 07:32:21;;;;;;;8.57;2.13;;;17.80;99.90;;;;;;4392822;32;20586;-61
2021/08/26 07:34:48;;;;;;;7.83;2.07;;;18.30;99.90;;;;;;4388392;32;20172;-62
2021/08/26 07:37:18;;;;;;;8.63;2.07;;;18.90;99.90;;;;;;4387074;32;20266;-62
2021/08/26 07:39:45;;;;;;;10.30;2.50;;;19.50;99.90;;;;;;4378043;32;20655;-63
2021/08/26 07:42:12;;;;;;;9.83;2.50;;;20.00;99.90;;;;;;4382248;32;20231;-62
2021/08/26 07:44:40;;;;;;;11.13;2.97;;;21.70;99.90;;;;;;4388547;32;20660;-61
2021/08/26 07:47:07;;;;;;;7.13;1.93;;;23.60;98.10;;;;;;4386576;32;20152;-62
2021/08/26 07:49:34;;;;;;;10.57;1.93;;;25.00;96.50;;;;;;4383887;32;20170;-61
2021/08/26 07:52:01;;;;;;;5.27;1.70;;;28.90;89.40;;;;;;4389716;32;20746;-64
2021/08/26 07:54:28;;;;;;;5.30;1.60;;;30.30;77.10;;;;;;4390774;32;20497;-63
2021/08/26 07:56:57;;;;;;;6.20;1.90;;;28.90;77.60;;;;;;4387353;32;20183;-62
2021/08/26 07:59:24;;;;;;;5.47;1.57;;;26.50;80.00;;;;;;4388441;32;20157;-61
2021/08/26 08:01:52;;;;;;;7.17;1.40;;;24.10;90.20;;;;;;4387290;32;20536;-62
2021/08/26 08:04:22;;;;;;;6.63;1.83;;;23.60;92.00;;;;;;4388326;32;20223;-62
2021/08/26 08:06:49;;;;;;;6.90;1.80;;;22.80;93.70;;;;;;4386788;32;20172;-62
2021/08/26 08:09:16;;;;;;;9.30;1.50;;;21.10;96.20;;;;;;4387993;32;20152;-62
2021/08/26 08:11:42;;;;;;;8.40;1.33;;;20.70;99.90;;;;;;4386533;32;20227;-62
2021/08/26 08:14:09;;;;;;;7.33;1.73;;;22.20;99.50;;;;;;4387256;32;20232;-63
2021/08/26 08:16:36;;;;;;;4.53;1.33;;;24.40;94.20;;;;;;4386656;32;20216;-63
2021/08/26 08:19:05;;;;;;;5.70;1.43;;;26.20;91.20;;;;;;4387089;32;20238;-65
2021/08/26 08:21:32;;;;;;;5.80;1.53;;;26.60;91.00;;;;;;4389384;32;20152;-63
2021/08/26 08:23:59;;;;;;;4.13;1.63;;;26.10;89.70;;;;;;4387547;32;20223;-63
2021/08/26 08:26:26;;;;;;;6.00;1.57;;;25.30;92.00;;;;;;4387683;32;20253;-64
2021/08/26 08:28:55;;;;;;;4.60;1.98;;;28.70;85.40;;;;;;4383776;32;20170;-61
2021/08/26 08:31:23;;;;;;;6.68;1.30;;;31.30;78.00;;;;;;4387058;32;20172;-61
2021/08/26 08:33:50;;;;;;;5.80;1.30;;;30.60;73.10;;;;;;4390313;32;20223;-61
2021/08/26 08:36:33;;;;;;;9.38;2.08;;;27.00;80.30;;;;;;4390184;32;20212;-61
2021/08/26 08:39:00;;;;;;;4.90;1.87;;;26.50;82.20;;;;;;4386590;32;20207;-62
2021/08/26 08:41:27;;;;;;;4.90;1.73;;;25.50;84.20;;;;;;4388824;32;20190;-62
2021/08/26 08:43:57;;;;;;;8.98;1.95;;;24.10;89.60;;;;;;4386842;32;20164;-61
2021/08/26 08:46:24;;;;;;;7.63;2.40;;;23.10;91.80;;;;;;4388523;32;20167;-63
2021/08/26 08:48:53;;;;;;;6.20;1.93;;;22.90;93.10;;;;;;4387952;32;20257;-63
2021/08/26 08:51:22;;;;;;;7.20;1.70;;;23.40;92.50;;;;;;4386240;32;20164;-62
2021/08/26 08:53:51;;;;;;;6.73;1.67;;;23.10;92.50;;;;;;4387796;32;20167;-61
2021/08/26 08:56:18;;;;;;;4.13;1.53;;;22.30;94.80;;;;;;4388980;32;20580;-63
2021/08/26 08:58:45;;;;;;;5.97;1.90;;;21.90;95.60;;;;;;4385919;32;20604;-61
2021/08/26 09:01:15;;;;;;;7.27;2.27;;;21.90;95.50;;;;;;4389078;32;20268;-61
2021/08/26 09:03:42;;;;;;;4.27;2.07;;;22.40;96.60;;;;;;4382970;32;20147;-61
2021/08/26 09:06:09;;;;;;;8.37;2.13;;;24.30;93.20;;;;;;4386369;32;20164;-61
2021/08/26 09:08:37;;;;;;;9.87;2.00;;;25.60;90.60;;;;;;4386836;32;20170;-60
2021/08/26 09:11:13;;;;;;;7.93;2.20;;;24.40;90.80;;;;;;4384840;32;20193;-61
2021/08/26 09:13:41;;;;;;;8.27;1.97;;;23.90;92.40;;;;;;4387035;32;20218;-61
2021/08/26 09:16:09;;;;;;;7.80;2.20;;;23.10;93.90;;;;;;4385869;32;20166;-62
2021/08/26 09:18:36;;;;;;;6.40;2.20;;;22.50;94.70;;;;;;4387938;32;20222;-61
2021/08/26 09:21:05;;;;;;;4.23;2.20;;;21.70;96.00;;;;;;4383832;32;20238;-62
2021/08/26 09:23:34;;;;;;;10.80;2.40;;;21.50;97.00;;;;;;4386899;32;20639;-61
2021/08/26 09:26:19;;;;;;;4.30;1.97;;;21.60;97.70;;;;;;4390858;32;20168;-62
2021/08/26 09:28:47;;;;;;;7.60;2.33;;;21.10;98.60;;;;;;4392268;32;20153;-62
2021/08/26 09:31:17;;;;;;;10.03;2.40;;;20.90;99.90;;;;;;4392615;32;20175;-62
2021/08/26 09:33:52;;;;;;;10.73;2.20;;;21.10;99.90;;;;;;4391886;32;20174;-62
2021/08/26 09:36:21;;;;;;;8.60;2.53;;;21.40;99.80;;;;;;4392665;32;20164;-62
2021/08/26 09:38:53;;;;;;;5.27;1.77;;;21.40;99.90;;;;;;4391911;32;20163;-63
2021/08/26 09:41:41;;;;;;;6.77;2.10;;;21.70;99.90;;;;;;4390965;32;20198;-62
2021/08/26 09:44:12;;;;;;;8.43;2.37;;;21.40;99.90;;;;;;4390987;32;20163;-61
2021/08/26 09:46:40;;;;;;;9.10;2.57;;;21.20;99.90;;;;;;4389998;32;20619;-62
2021/08/26 09:49:08;;;;;;;4.60;2.07;;;21.00;99.90;;;;;;4390174;32;20159;-62
2021/08/26 09:51:36;;;;;;;8.87;2.13;;;21.10;99.90;;;;;;4389455;32;20164;-63
2021/08/26 09:54:03;;;;;;;10.73;2.77;;;20.60;99.90;;;;;;4389129;32;20195;-61
2021/08/26 09:56:42;;;;;;;7.27;2.90;;;20.60;99.90;;;;;;4389806;32;20167;-61
2021/08/26 09:59:09;;;;;;;13.13;3.47;;;21.10;99.90;;;;;;4388191;32;20227;-61
2021/08/26 10:01:38;;;;;;;11.17;3.17;;;21.20;99.90;;;;;;4389649;32;20168;-61
2021/08/26 10:04:27;;;;;;;7.67;2.77;;;20.70;99.90;;;;;;4390379;32;20139;-61
2021/08/26 10:06:55;;;;;;;10.00;2.67;;;20.40;99.90;;;;;;4389386;32;20174;-61
2021/08/26 10:09:24;;;;;;;13.50;2.97;;;20.20;99.90;;;;;;4390791;32;20168;-63
2021/08/26 10:11:53;;;;;;;8.40;3.17;;;20.50;99.90;;;;;;4391179;32;20623;-62
2021/08/26 10:14:20;;;;;;;11.83;3.23;;;20.60;99.90;;;;;;4391595;32;20231;-61
2021/08/26 10:16:47;;;;;;;13.70;3.53;;;20.60;99.90;;;;;;4390000;32;20167;-61
2021/08/26 10:19:16;;;;;;;9.23;3.13;;;20.30;99.90;;;;;;4388581;32;20175;-62
2021/08/26 10:21:44;;;;;;;15.27;4.27;;;20.10;99.90;;;;;;4387422;32;20549;-60
2021/08/26 10:24:12;;;;;;;10.80;3.63;;;19.40;99.90;;;;;;4388855;32;20171;-60
2021/08/26 10:26:42;;;;;;;13.77;3.70;;;18.60;99.90;;;;;;4390714;32;20164;-60
2021/08/26 10:29:12;;;;;;;9.97;3.33;;;18.50;99.90;;;;;;4390717;32;20227;-61
2021/08/26 10:31:39;;;;;;;18.73;3.80;;;18.50;99.90;;;;;;4391483;32;20166;-61
2021/08/26 10:34:13;;;;;;;11.90;3.97;;;18.70;99.90;;;;;;4390187;32;20171;-61
2021/08/26 10:36:45;;;;;;;11.20;3.93;;;19.00;99.90;;;;;;4388707;32;20169;-60
2021/08/26 10:39:30;;;;;;;8.93;3.57;;;19.30;99.90;;;;;;4390751;32;20152;-60
2021/08/26 10:41:57;;;;;;;12.47;3.77;;;19.50;99.90;;;;;;4389105;32;20568;-61
2021/08/26 10:45:01;;;;;;;13.13;3.50;;;19.60;99.90;;;;;;4391136;32;20202;-61
2021/08/26 10:48:02;;;;;;;13.27;4.37;;;19.90;99.90;;;;;;4388955;32;20410;-62
2021/08/26 10:50:32;;;;;;;9.40;3.43;;;19.50;99.90;;;;;;4389645;32;20227;-61
2021/08/26 10:53:02;;;;;;;12.40;4.00;;;19.10;99.90;;;;;;4389046;32;20647;-62
2021/08/26 10:55:31;;;;;;;14.07;5.10;;;18.60;99.90;;;;;;4387658;32;20211;-62
2021/08/26 10:58:38;;;;;;;10.90;4.60;;;18.20;99.90;;;;;;4389525;32;20148;-63
2021/08/26 11:01:11;;;;;;;11.50;3.53;;;18.10;99.90;;;;;;4389249;32;20166;-61
2021/08/26 11:03:55;;;;;;;15.50;4.30;;;18.30;99.90;;;;;;4382741;32;20310;-62
2021/08/26 11:06:42;;;;;;;13.13;4.40;;;18.20;99.90;;;;;;4381827;32;20540;-62
2021/08/26 11:09:32;;;;;;;12.87;4.07;;;17.90;99.90;;;;;;4380649;32;20514;-61
2021/08/26 11:12:23;;;;;;;16.73;4.20;;;17.70;99.90;;;;;;4381573;32;20165;-61
2021/08/26 11:14:51;;;;;;;15.57;4.37;;;17.80;99.90;;;;;;4365492;32;20232;-61
2021/08/26 11:17:43;;;;;;;12.47;4.47;;;17.90;99.90;;;;;;4366660;32;20144;-61
2021/08/26 11:20:31;;;;;;;10.33;3.90;;;18.40;99.90;;;;;;4345411;32;20210;-61
2021/08/26 11:23:09;;;;;;;13.20;5.57;;;18.50;99.90;;;;;;4340890;33;20209;-61
2021/08/26 11:25:36;;;;;;;15.13;3.60;;;18.50;99.90;;;;;;4345433;32;20192;-60
2021/08/26 11:28:33;;;;;;;9.57;4.40;;;18.70;99.90;;;;;;4336962;32;20179;-63
2021/08/26 11:31:22;;;;;;;15.67;4.30;;;19.60;99.90;;;;;;4340614;33;20329;-61
2021/08/26 11:33:53;;;;;;;14.67;4.20;;;20.20;99.90;;;;;;4334100;33;20165;-63
2021/08/26 11:36:20;;;;;;;10.60;4.10;;;20.40;99.90;;;;;;4339645;33;20474;-61
2021/08/26 11:38:50;;;;;;;11.13;3.70;;;20.20;99.90;;;;;;4333199;33;20148;-62
2021/08/26 11:41:17;;;;;;;9.00;3.43;;;20.10;99.90;;;;;;4335030;33;20173;-60
2021/08/26 11:43:44;;;;;;;10.80;3.83;;;20.20;99.90;;;;;;4338078;33;20223;-62
2021/08/26 11:46:13;;;;;;;11.07;3.40;;;20.20;99.90;;;;;;4337590;33;20189;-62
2021/08/26 11:48:56;;;;;;;9.87;3.23;;;20.30;99.90;;;;;;4349123;33;20431;-61
2021/08/26 11:51:29;;;;;;;11.60;3.90;;;20.60;99.90;;;;;;4337611;32;20498;-63
2021/08/26 11:54:09;;;;;;;12.70;3.23;;;21.00;99.90;;;;;;4337938;33;20161;-61
2021/08/26 11:56:42;;;;;;;12.03;3.60;;;21.60;99.90;;;;;;4352186;32;20202;-63
2021/08/26 11:59:27;;;;;;;9.27;3.07;;;21.90;99.90;;;;;;4366387;32;20148;-61
2021/08/26 12:02:31;;;;;;;10.83;3.00;;;21.60;99.30;;;;;;4362150;32;20215;-61
2021/08/26 12:05:03;;;;;;;10.47;3.43;;;21.80;99.40;;;;;;4367671;32;20220;-61
2021/08/26 12:07:32;;;;;;;11.53;4.43;;;22.00;99.90;;;;;;4381906;32;20211;-61
2021/08/26 12:10:07;;;;;;;14.33;3.77;;;21.90;99.90;;;;;;4386248;32;20231;-61
2021/08/26 12:12:35;;;;;;;13.30;4.07;;;21.20;99.90;;;;;;4386024;32;20262;-61
2021/08/26 12:15:02;;;;;;;13.43;5.30;;;20.70;99.90;;;;;;4389949;32;20219;-60
2021/08/26 12:17:29;;;;;;;13.10;4.60;;;20.10;99.90;;;;;;4387858;32;20232;-61
2021/08/26 12:19:57;;;;;;;14.37;4.80;;;19.40;99.90;;;;;;4389741;32;20162;-62
2021/08/26 12:22:26;;;;;;;10.77;4.20;;;18.80;99.90;;;;;;4387424;32;20630;-61
2021/08/26 12:24:56;;;;;;;10.97;3.73;;;18.90;99.90;;;;;;4389159;32;20148;-60
2021/08/26 12:27:25;;;;;;;8.67;3.37;;;19.30;99.90;;;;;;4387406;32;20229;-61
2021/08/26 12:29:53;;;;;;;12.47;3.83;;;20.00;99.90;;;;;;4384644;32;20152;-61
2021/08/26 12:32:38;;;;;;;15.70;4.47;;;20.40;99.90;;;;;;4387563;32;20190;-63
2021/08/26 12:35:21;;;;;;;21.50;4.97;;;20.60;99.90;;;;;;4390175;32;20178;-63
2021/08/26 12:38:01;;;;;;;14.90;5.03;;;20.80;99.90;;;;;;4386669;32;20170;-61
2021/08/26 12:40:31;;;;;;;9.07;3.53;;;21.00;99.90;;;;;;4388664;32;20231;-61
2021/08/26 12:43:03;;;;;;;11.23;3.47;;;21.00;99.90;;;;;;4389228;32;20212;-61
2021/08/26 12:45:31;;;;;;;16.83;3.97;;;20.90;99.90;;;;;;4389360;32;20285;-63
2021/08/26 12:47:59;;;;;;;9.27;3.37;;;21.10;99.90;;;;;;4389199;32;20601;-62
2021/08/26 12:50:31;;;;;;;11.97;3.43;;;21.60;99.90;;;;;;4390356;32;20202;-61
2021/08/26 12:53:00;;;;;;;11.50;3.00;;;22.00;99.90;;;;;;4378359;32;20157;-62
2021/08/26 12:55:27;;;;;;;11.00;3.47;;;22.20;99.90;;;;;;4380120;32;20648;-61